createdAt,value
2022-10-19T00:01:12.900Z,3.90
2022-10-19T00:03:39.893Z,3.83
2022-10-19T00:06:18.182Z,4.53
2022-10-19T00:08:45.512Z,4.68
2022-10-19T00:11:13.187Z,4.93
2022-10-19T00:13:40.417Z,4.70
2022-10-19T00:16:12.436Z,5.15
2022-10-19T00:18:40.685Z,4.35
2022-10-19T00:21:09.220Z,4.80
2022-10-19T00:23:36.207Z,5.32
2022-10-19T00:26:03.117Z,5.00
2022-10-19T00:28:30.912Z,4.70
2022-10-19T00:31:02.496Z,5.03
2022-10-19T00:33:29.339Z,4.78
2022-10-19T00:35:56.156Z,5.63
2022-10-19T00:38:22.976Z,4.97
2022-10-19T00:40:50.027Z,5.70
2022-10-19T00:43:23.459Z,5.85
2022-10-19T00:45:51.022Z,6.65
2022-10-19T00:48:27.159Z,6.22
2022-10-19T00:50:56.522Z,7.30
2022-10-19T00:53:26.300Z,6.47
2022-10-19T00:55:53.934Z,6.85
2022-10-19T00:58:20.982Z,7.57
2022-10-19T01:00:48.145Z,7.57
2022-10-19T01:03:14.993Z,8.48
2022-10-19T01:05:42.719Z,8.57
2022-10-19T01:08:11.253Z,9.45
2022-10-19T01:10:58.119Z,8.55
2022-10-19T01:13:29.830Z,9.80
2022-10-19T01:16:15.277Z,10.50
2022-10-19T01:18:58.860Z,9.77
2022-10-19T01:21:33.268Z,10.55
2022-10-19T01:24:18.795Z,10.02
2022-10-19T01:27:00.709Z,10.27
2022-10-19T01:30:05.229Z,11.38
2022-10-19T01:32:57.093Z,10.55
2022-10-19T01:35:33.119Z,10.23
2022-10-19T01:38:34.227Z,10.35
2022-10-19T01:41:12.706Z,9.27
2022-10-19T01:43:51.638Z,9.13
2022-10-19T01:46:21.668Z,9.98
2022-10-19T01:48:58.622Z,9.93
2022-10-19T01:51:37.526Z,9.75
2022-10-19T01:54:10.017Z,10.00
2022-10-19T01:56:39.853Z,10.55
2022-10-19T01:59:08.930Z,9.88
2022-10-19T02:01:39.943Z,9.98
2022-10-19T02:04:07.720Z,10.13
2022-10-19T02:06:35.612Z,9.57
2022-10-19T02:09:02.886Z,10.32
2022-10-19T02:11:31.620Z,9.98
2022-10-19T02:14:07.989Z,10.15
2022-10-19T02:16:45.888Z,9.95
2022-10-19T02:19:15.754Z,8.48
2022-10-19T02:21:42.781Z,8.57
2022-10-19T02:24:09.564Z,7.70
2022-10-19T02:26:36.904Z,8.32
2022-10-19T02:29:03.801Z,7.80
2022-10-19T02:31:30.777Z,7.18
2022-10-19T02:33:57.984Z,6.32
2022-10-19T02:36:24.919Z,6.22
2022-10-19T02:38:51.822Z,5.95
2022-10-19T02:41:28.812Z,6.47
2022-10-19T02:44:01.211Z,5.72
2022-10-19T02:46:32.369Z,5.05
2022-10-19T02:48:59.716Z,6.25
2022-10-19T02:51:30.624Z,5.22
2022-10-19T02:53:59.040Z,5.55
2022-10-19T02:56:28.259Z,4.80
2022-10-19T02:58:55.190Z,5.22
2022-10-19T03:01:24.492Z,5.47
2022-10-19T03:03:51.361Z,4.97
2022-10-19T03:06:18.594Z,5.80
2022-10-19T03:08:45.559Z,5.75
2022-10-19T03:11:12.425Z,5.40
2022-10-19T03:13:40.890Z,5.32
2022-10-19T03:16:09.627Z,5.22
2022-10-19T03:18:36.559Z,6.20
2022-10-19T03:21:06.892Z,5.65
2022-10-19T03:23:34.498Z,5.50
2022-10-19T03:26:01.642Z,5.28
2022-10-19T03:28:28.757Z,5.28
2022-10-19T03:30:56.161Z,6.53
2022-10-19T03:33:23.231Z,6.32
2022-10-19T03:35:50.024Z,5.95
2022-10-19T03:38:17.228Z,6.55
2022-10-19T03:40:43.999Z,6.57
2022-10-19T03:43:10.854Z,6.03
2022-10-19T03:45:37.720Z,7.15
2022-10-19T03:48:04.736Z,6.90
2022-10-19T03:50:31.486Z,6.75
2022-10-19T03:52:58.507Z,7.47
2022-10-19T03:55:25.297Z,8.15
2022-10-19T03:57:52.161Z,7.68
2022-10-19T04:00:19.017Z,7.53
2022-10-19T04:02:45.851Z,7.60
2022-10-19T04:05:12.690Z,7.78
2022-10-19T04:07:39.554Z,8.88
2022-10-19T04:10:06.706Z,7.45
2022-10-19T04:12:33.564Z,7.57
2022-10-19T04:15:00.612Z,7.65
2022-10-19T04:17:27.425Z,7.90
2022-10-19T04:19:54.190Z,8.45
2022-10-19T04:22:21.346Z,7.57
2022-10-19T04:24:48.149Z,7.93
2022-10-19T04:27:14.988Z,8.35
2022-10-19T04:29:42.014Z,8.25
2022-10-19T04:32:08.848Z,8.48
2022-10-19T04:34:37.755Z,7.68
2022-10-19T04:37:06.937Z,7.75
2022-10-19T04:39:33.909Z,7.47
2022-10-19T04:42:00.737Z,8.43
2022-10-19T04:44:27.528Z,7.30
2022-10-19T04:46:54.435Z,7.05
2022-10-19T04:49:21.261Z,7.55
2022-10-19T04:51:48.161Z,7.40
2022-10-19T04:54:15.151Z,8.43
2022-10-19T04:56:41.961Z,7.55
2022-10-19T04:59:10.459Z,7.45
2022-10-19T05:01:38.228Z,6.88
2022-10-19T05:04:05.037Z,7.13
2022-10-19T05:06:32.353Z,8.82
2022-10-19T05:09:00.333Z,8.43
2022-10-19T05:11:27.601Z,7.75
2022-10-19T05:13:56.022Z,7.90
2022-10-19T05:16:24.464Z,8.00
2022-10-19T05:18:53.380Z,7.93
2022-10-19T05:21:35.722Z,7.55
2022-10-19T05:24:02.525Z,8.63
2022-10-19T05:26:30.200Z,8.30
2022-10-19T05:29:04.816Z,7.53
2022-10-19T05:31:33.870Z,8.02
2022-10-19T05:34:00.969Z,8.65
2022-10-19T05:36:32.606Z,8.30
2022-10-19T05:39:02.123Z,8.82
2022-10-19T05:41:29.071Z,8.15
2022-10-19T05:43:57.968Z,8.65
2022-10-19T05:46:26.111Z,7.82
2022-10-19T05:48:54.428Z,8.40
2022-10-19T05:51:22.527Z,8.60
2022-10-19T05:53:49.997Z,8.85
2022-10-19T05:56:19.509Z,8.57
2022-10-19T05:58:46.926Z,8.98
2022-10-19T06:01:14.492Z,8.20
2022-10-19T06:03:41.639Z,9.40
2022-10-19T06:06:09.813Z,9.18
2022-10-19T06:08:37.562Z,8.90
2022-10-19T06:11:08.965Z,8.05
2022-10-19T06:13:36.778Z,8.52
2022-10-19T06:16:04.288Z,9.10
2022-10-19T06:18:31.428Z,8.60
2022-10-19T06:21:06.983Z,7.45
2022-10-19T06:23:34.893Z,8.98
2022-10-19T06:26:15.155Z,9.05
2022-10-19T06:28:43.829Z,8.88
2022-10-19T06:31:11.076Z,8.35
2022-10-19T06:33:40.668Z,8.75
2022-10-19T06:36:11.787Z,10.07
2022-10-19T06:38:38.808Z,9.02
2022-10-19T06:41:05.886Z,8.85
2022-10-19T06:43:33.548Z,8.55
2022-10-19T06:46:10.445Z,9.68
2022-10-19T06:48:37.695Z,9.30
2022-10-19T06:51:07.560Z,9.20
2022-10-19T06:53:35.725Z,9.10
2022-10-19T06:56:05.176Z,8.70
2022-10-19T06:58:35.629Z,8.60
2022-10-19T07:01:02.952Z,8.25
2022-10-19T07:03:30.055Z,9.20
2022-10-19T07:05:59.003Z,8.80
2022-10-19T07:08:27.285Z,9.10
2022-10-19T07:10:56.477Z,9.02
2022-10-19T07:13:23.428Z,7.50
2022-10-19T07:15:56.212Z,7.75
2022-10-19T07:18:23.001Z,8.57
2022-10-19T07:21:01.121Z,8.52
2022-10-19T07:23:29.751Z,7.75
2022-10-19T07:26:01.889Z,8.30
2022-10-19T07:28:29.998Z,7.00
2022-10-19T07:30:57.240Z,7.55
2022-10-19T07:33:24.303Z,8.45
2022-10-19T07:35:51.263Z,8.52
2022-10-19T07:38:18.073Z,7.72
2022-10-19T07:40:47.335Z,8.23
2022-10-19T07:43:14.506Z,8.38
2022-10-19T07:45:41.304Z,8.50
2022-10-19T07:48:08.128Z,9.27
2022-10-19T07:50:34.915Z,9.60
2022-10-19T07:53:05.162Z,9.40
2022-10-19T07:55:34.531Z,9.20
2022-10-19T07:58:02.044Z,10.35
2022-10-19T08:00:29.788Z,7.43
2022-10-19T08:03:19.222Z,8.60
2022-10-19T08:05:43.563Z,7.80
2022-10-19T08:08:10.342Z,8.32
2022-10-19T08:10:37.151Z,8.93
2022-10-19T08:13:03.979Z,7.70
2022-10-19T08:15:30.953Z,7.93
2022-10-19T08:17:57.909Z,7.32
2022-10-19T08:20:24.734Z,8.30
2022-10-19T08:22:56.365Z,7.50
2022-10-19T08:25:25.915Z,5.97
2022-10-19T08:27:52.855Z,6.63
2022-10-19T08:30:19.728Z,6.05
2022-10-19T08:32:46.574Z,6.35
2022-10-19T08:35:13.432Z,6.70
2022-10-19T08:37:44.800Z,6.15
2022-10-19T08:40:22.839Z,5.85
2022-10-19T08:42:53.711Z,6.07
2022-10-19T08:48:29.347Z,5.45
2022-10-19T08:50:58.001Z,5.68
2022-10-19T08:53:32.265Z,5.18
2022-10-19T08:56:49.849Z,6.15
2022-10-19T08:59:29.567Z,5.57
2022-10-19T09:01:59.587Z,5.50
2022-10-19T09:04:33.116Z,5.07
2022-10-19T09:07:34.682Z,5.35
2022-10-19T09:10:10.762Z,5.32
2022-10-19T09:12:53.858Z,5.03
2022-10-19T09:15:40.642Z,5.47
2022-10-19T09:18:20.980Z,5.63
2022-10-19T09:20:50.809Z,5.38
2022-10-19T09:23:29.437Z,5.78
2022-10-19T09:25:57.327Z,4.90
2022-10-19T09:28:31.470Z,5.55
2022-10-19T09:31:03.855Z,4.70
2022-10-19T09:33:34.892Z,5.95
2022-10-19T09:36:04.252Z,5.05
2022-10-19T09:38:31.722Z,5.25
2022-10-19T09:41:05.809Z,5.00
2022-10-19T09:43:32.793Z,5.05
2022-10-19T09:46:18.537Z,5.38
2022-10-19T09:48:52.252Z,4.97
2022-10-19T09:51:20.415Z,5.28
2022-10-19T09:53:55.357Z,5.15
2022-10-19T09:56:24.802Z,4.93
2022-10-19T09:58:57.243Z,5.60
2022-10-19T10:01:40.215Z,5.47
2022-10-19T10:04:15.419Z,6.13
2022-10-19T10:06:44.694Z,5.78
2022-10-19T10:09:22.020Z,5.65
2022-10-19T10:11:51.006Z,6.20
2022-10-19T10:14:32.453Z,6.75
2022-10-19T10:17:04.221Z,6.28
2022-10-19T10:19:33.801Z,6.95
2022-10-19T10:22:02.853Z,7.47
2022-10-19T10:24:32.218Z,7.95
2022-10-19T10:27:01.584Z,7.97
2022-10-19T10:29:36.005Z,7.25
2022-10-19T10:32:19.310Z,7.13
2022-10-19T10:35:01.843Z,8.20
2022-10-19T10:37:37.261Z,7.60
2022-10-19T10:40:06.061Z,7.22
2022-10-19T10:42:40.365Z,8.10
2022-10-19T10:45:19.029Z,7.95
2022-10-19T10:47:48.320Z,8.13
2022-10-19T10:50:31.777Z,7.70
2022-10-19T10:53:05.503Z,8.85
2022-10-19T10:55:34.050Z,8.27
2022-10-19T10:58:18.447Z,7.65
2022-10-19T11:00:46.590Z,8.52
2022-10-19T11:03:26.590Z,7.85
2022-10-19T11:05:59.431Z,9.18
2022-10-19T11:08:36.319Z,8.05
2022-10-19T11:11:17.798Z,7.72
2022-10-19T11:13:53.384Z,8.25
2022-10-19T11:16:27.283Z,7.72
2022-10-19T11:19:00.266Z,7.60
2022-10-19T11:21:53.013Z,7.57
2022-10-19T11:24:41.886Z,7.25
2022-10-19T11:27:43.259Z,7.65
2022-10-19T11:30:15.353Z,8.10
2022-10-19T11:32:42.133Z,6.47
2022-10-19T11:35:20.887Z,6.95
2022-10-19T11:38:20.249Z,7.30
2022-10-19T11:41:16.947Z,7.30
2022-10-19T11:44:04.150Z,6.28
2022-10-19T11:46:53.858Z,7.60
2022-10-19T11:49:44.696Z,7.20
2022-10-19T11:52:50.488Z,7.15
2022-10-19T11:55:41.079Z,5.78
2022-10-19T11:58:33.704Z,7.28
2022-10-19T12:01:29.055Z,6.22
2022-10-19T12:04:14.210Z,5.55
2022-10-19T12:07:05.991Z,7.87
2022-10-19T12:10:11.333Z,7.00
2022-10-19T12:12:45.767Z,6.45
2022-10-19T12:15:26.218Z,6.50
2022-10-19T12:17:56.866Z,6.47
2022-10-19T12:20:36.565Z,7.05
2022-10-19T12:23:33.241Z,6.22
2022-10-19T12:26:06.219Z,6.70
2022-10-19T12:28:40.309Z,6.80
2022-10-19T12:31:08.070Z,5.93
2022-10-19T12:34:08.017Z,7.50
2022-10-19T12:36:58.930Z,6.75
2022-10-19T12:39:40.760Z,7.45
2022-10-19T12:42:26.177Z,6.70
2022-10-19T12:45:01.552Z,6.82
2022-10-19T12:47:28.697Z,6.65
2022-10-19T12:49:56.253Z,6.05
2022-10-19T12:52:41.842Z,6.65
2022-10-19T12:55:17.934Z,5.68
2022-10-19T12:57:48.390Z,7.10
2022-10-19T13:00:22.916Z,7.43
2022-10-19T13:03:05.300Z,7.20
2022-10-19T13:05:34.109Z,6.82
2022-10-19T13:08:03.787Z,6.82
2022-10-19T13:10:33.310Z,7.47
2022-10-19T13:13:01.886Z,5.65
2022-10-19T13:15:37.941Z,6.38
2022-10-19T13:18:12.726Z,5.03
2022-10-19T13:23:07.328Z,4.97
2022-10-19T13:25:35.587Z,5.22
2022-10-19T13:28:11.224Z,4.63
2022-10-19T13:30:44.079Z,4.60
2022-10-19T13:33:29.049Z,5.22
2022-10-19T13:35:58.849Z,5.03
2022-10-19T13:38:53.398Z,4.82
2022-10-19T13:41:43.275Z,5.03
2022-10-19T13:44:13.854Z,5.45
2022-10-19T13:47:02.674Z,4.72
2022-10-19T13:50:26.942Z,4.95
2022-10-19T13:53:11.623Z,4.50
2022-10-19T13:56:05.785Z,5.22
2022-10-19T13:59:03.859Z,4.65
2022-10-19T14:01:48.423Z,5.53
2022-10-19T14:04:30.506Z,4.82
2022-10-19T14:07:05.959Z,4.88
2022-10-19T14:12:14.550Z,4.82
2022-10-19T14:14:43.883Z,4.82
2022-10-19T14:17:27.867Z,5.03
2022-10-19T14:19:57.799Z,5.38
2022-10-19T14:22:36.357Z,5.97
2022-10-19T14:25:18.237Z,5.32
2022-10-19T14:27:46.767Z,4.93
2022-10-19T14:30:24.268Z,5.32
2022-10-19T14:32:54.770Z,5.25
2022-10-19T14:35:34.217Z,4.43
2022-10-19T14:38:01.573Z,4.95
2022-10-19T14:40:31.243Z,5.40
2022-10-19T14:43:00.208Z,4.63
2022-10-19T14:45:29.915Z,4.68
2022-10-19T14:47:58.279Z,5.68
2022-10-19T14:50:40.441Z,6.35
2022-10-19T14:53:24.439Z,5.70
2022-10-19T14:55:55.414Z,6.40
2022-10-19T14:58:26.114Z,5.75
2022-10-19T15:00:54.017Z,5.47
2022-10-19T15:03:28.651Z,5.32
2022-10-19T15:06:02.631Z,4.80
2022-10-19T15:08:47.659Z,5.53
2022-10-19T15:11:41.427Z,5.63
2022-10-19T15:14:12.150Z,5.28
2022-10-19T15:16:46.795Z,5.15
2022-10-19T15:19:28.947Z,5.53
2022-10-19T15:22:14.497Z,5.55
2022-10-19T15:24:57.210Z,5.25
2022-10-19T15:27:34.462Z,5.45
2022-10-19T15:30:26.400Z,6.40
2022-10-19T15:33:02.328Z,5.75
2022-10-19T15:35:32.253Z,5.15
2022-10-19T15:38:10.704Z,5.45
2022-10-19T15:40:45.697Z,5.97
2022-10-19T15:43:24.687Z,5.85
2022-10-19T15:46:02.290Z,5.70
2022-10-19T15:48:41.534Z,6.60
2022-10-19T15:51:23.793Z,5.68
2022-10-19T15:54:02.807Z,6.00
2022-10-19T15:56:32.758Z,6.05
2022-10-19T15:59:01.790Z,6.38
2022-10-19T16:01:34.205Z,5.90
2022-10-19T16:04:01.208Z,6.47
2022-10-19T16:06:33.453Z,6.10
2022-10-19T16:09:00.932Z,6.43
2022-10-19T16:11:29.841Z,6.13
2022-10-19T16:13:56.771Z,6.47
2022-10-19T16:16:29.776Z,6.72
2022-10-19T16:18:57.522Z,6.35
2022-10-19T16:21:28.058Z,6.43
2022-10-19T16:23:54.999Z,5.50
2022-10-19T16:26:22.190Z,6.10
2022-10-19T16:28:49.056Z,6.57
2022-10-19T16:31:16.648Z,9.20
2022-10-19T16:33:43.735Z,10.40
2022-10-19T16:36:11.041Z,11.65
2022-10-19T16:38:37.980Z,8.38
2022-10-19T16:41:07.626Z,7.53
2022-10-19T16:43:35.347Z,7.55
2022-10-19T16:46:03.297Z,6.63
2022-10-19T16:48:30.933Z,6.63
2022-10-19T16:51:03.625Z,7.15
2022-10-19T16:53:30.440Z,8.10
2022-10-19T16:56:08.173Z,7.15
2022-10-19T16:58:37.023Z,7.50
2022-10-19T17:01:11.958Z,7.95
2022-10-19T17:03:38.962Z,7.57
2022-10-19T17:06:07.363Z,7.68
2022-10-19T17:09:07.407Z,8.07
2022-10-19T17:11:30.211Z,8.40
2022-10-19T17:13:59.589Z,8.50
2022-10-19T17:16:27.968Z,10.60
2022-10-19T17:18:56.469Z,11.38
2022-10-19T17:21:26.009Z,11.07
2022-10-19T17:24:01.263Z,12.57
2022-10-19T17:26:35.466Z,11.27
2022-10-19T17:29:02.388Z,10.48
2022-10-19T17:31:29.367Z,10.40
2022-10-19T17:33:56.724Z,8.77
2022-10-19T17:36:27.268Z,9.35
2022-10-19T17:38:55.489Z,10.05
2022-10-19T17:41:22.904Z,8.02
2022-10-19T17:43:53.514Z,7.60
2022-10-19T17:46:26.667Z,8.38
2022-10-19T17:48:53.653Z,7.88
2022-10-19T17:51:29.367Z,7.50
2022-10-19T17:53:58.598Z,7.78
2022-10-19T17:56:26.230Z,7.68
2022-10-19T17:58:53.891Z,7.88
2022-10-19T18:01:22.271Z,6.95
2022-10-19T18:03:49.560Z,7.15
2022-10-19T18:06:19.215Z,7.18
2022-10-19T18:08:49.089Z,7.28
2022-10-19T18:11:22.249Z,7.93
2022-10-19T18:13:50.539Z,8.00
2022-10-19T18:16:23.601Z,10.45
2022-10-19T18:18:53.117Z,10.10
2022-10-19T18:21:24.918Z,8.60
2022-10-19T18:23:53.548Z,8.63
2022-10-19T18:26:23.029Z,8.63
2022-10-19T18:28:50.998Z,9.45
2022-10-19T18:31:20.531Z,9.50
2022-10-19T18:33:49.386Z,10.57
2022-10-19T18:36:16.459Z,9.15
2022-10-19T18:38:43.289Z,8.90
2022-10-19T18:43:44.383Z,9.02
2022-10-19T18:46:11.783Z,10.48
2022-10-19T18:48:38.810Z,10.30
2022-10-19T18:51:07.984Z,11.50
2022-10-19T18:53:35.396Z,9.90
2022-10-19T18:56:05.653Z,9.93
2022-10-19T18:58:33.839Z,9.43
2022-10-19T19:01:11.116Z,9.63
2022-10-19T19:03:40.613Z,8.98
2022-10-19T19:06:30.186Z,9.75
2022-10-19T19:08:58.670Z,11.50
2022-10-19T19:11:30.597Z,11.40
2022-10-19T19:14:17.927Z,12.55
2022-10-19T19:16:45.593Z,10.30
2022-10-19T19:19:14.779Z,10.60
2022-10-19T19:21:44.337Z,12.00
2022-10-19T19:24:18.700Z,12.93
2022-10-19T19:26:49.391Z,10.73
2022-10-19T19:29:17.469Z,11.77
2022-10-19T19:31:44.544Z,11.35
2022-10-19T19:34:12.186Z,11.23
2022-10-19T19:36:46.487Z,11.05
2022-10-19T19:39:14.694Z,11.35
2022-10-19T19:41:41.592Z,12.55
2022-10-19T19:44:08.514Z,12.40
2022-10-19T19:46:36.002Z,11.70
2022-10-19T19:49:04.874Z,10.88
2022-10-19T19:51:32.423Z,12.43
2022-10-19T19:53:59.977Z,12.02
2022-10-19T19:56:28.753Z,14.73
2022-10-19T19:58:57.319Z,12.90
2022-10-19T20:01:24.745Z,12.50
2022-10-19T20:03:52.149Z,12.88
2022-10-19T20:06:22.251Z,13.27
2022-10-19T20:08:52.239Z,15.15
2022-10-19T20:11:19.256Z,13.55
2022-10-19T20:13:46.343Z,14.05
2022-10-19T20:16:16.082Z,14.15
2022-10-19T20:18:49.274Z,13.07
2022-10-19T20:21:18.337Z,13.27
2022-10-19T20:23:46.333Z,13.43
2022-10-19T20:26:22.086Z,15.10
2022-10-19T20:28:49.881Z,14.10
2022-10-19T20:31:17.869Z,16.10
2022-10-19T20:33:47.309Z,14.25
2022-10-19T20:36:15.819Z,15.25
2022-10-19T20:38:48.155Z,14.98
2022-10-19T20:41:15.146Z,14.90
2022-10-19T20:43:41.913Z,15.90
2022-10-19T20:46:12.783Z,17.27
2022-10-19T20:48:40.509Z,15.45
2022-10-19T20:51:17.973Z,15.05
2022-10-19T20:53:46.625Z,15.40
2022-10-19T20:56:16.047Z,15.55
2022-10-19T20:58:43.820Z,15.40
2022-10-19T21:01:14.700Z,15.48
2022-10-19T21:03:47.218Z,14.05
2022-10-19T21:06:14.809Z,14.40
2022-10-19T21:08:41.851Z,14.00
2022-10-19T21:11:12.979Z,14.77
2022-10-19T21:13:39.872Z,15.13
2022-10-19T21:16:18.286Z,15.65
2022-10-19T21:18:47.691Z,16.02
2022-10-19T21:21:27.287Z,14.93
2022-10-19T21:24:04.639Z,14.75
2022-10-19T21:26:33.620Z,16.58
2022-10-19T21:29:01.226Z,15.93
2022-10-19T21:31:28.428Z,15.43
2022-10-19T21:33:55.225Z,16.35
2022-10-19T21:36:25.002Z,16.75
2022-10-19T21:38:52.252Z,15.75
2022-10-19T21:41:25.318Z,17.45
2022-10-19T21:43:54.114Z,16.38
2022-10-19T21:46:22.960Z,16.35
2022-10-19T21:48:50.556Z,16.05
2022-10-19T21:51:17.289Z,17.65
2022-10-19T21:53:45.406Z,16.58
2022-10-19T21:56:12.878Z,16.95
2022-10-19T21:58:48.156Z,16.48
2022-10-19T22:01:17.866Z,17.90
2022-10-19T22:03:44.833Z,16.30
2022-10-19T22:06:12.533Z,16.83
2022-10-19T22:08:40.211Z,18.45
2022-10-19T22:11:08.483Z,16.98
2022-10-19T22:13:36.154Z,19.08
2022-10-19T22:16:08.962Z,18.63
2022-10-19T22:18:36.304Z,20.10
2022-10-19T22:21:18.451Z,16.60
2022-10-19T22:23:45.402Z,17.25
2022-10-19T22:26:17.184Z,15.98
2022-10-19T22:28:44.655Z,16.40
2022-10-19T22:31:13.040Z,18.48
2022-10-19T22:33:40.199Z,17.13
2022-10-19T22:36:08.830Z,17.95
2022-10-19T22:38:36.086Z,22.17
2022-10-19T22:41:02.953Z,17.27
2022-10-19T22:43:29.804Z,17.17
2022-10-19T22:45:56.730Z,17.25
2022-10-19T22:48:23.656Z,18.60
2022-10-19T22:50:54.337Z,17.40
2022-10-19T22:53:22.952Z,18.55
2022-10-19T22:55:49.827Z,18.48
2022-10-19T22:58:17.446Z,17.58
2022-10-19T23:00:44.310Z,18.27
2022-10-19T23:03:11.278Z,17.52
2022-10-19T23:05:38.127Z,18.52
2022-10-19T23:08:05.419Z,18.05
2022-10-19T23:10:32.685Z,18.73
2022-10-19T23:13:00.654Z,17.10
2022-10-19T23:15:27.646Z,17.60
2022-10-19T23:17:54.611Z,17.63
2022-10-19T23:20:21.407Z,18.20
2022-10-19T23:22:50.297Z,18.63
2022-10-19T23:25:17.120Z,19.30
2022-10-19T23:27:44.015Z,20.02
2022-10-19T23:30:11.288Z,18.73
2022-10-19T23:32:38.139Z,20.35
2022-10-19T23:35:06.568Z,18.92
2022-10-19T23:37:35.120Z,20.35
2022-10-19T23:40:03.622Z,19.92
2022-10-19T23:42:30.451Z,20.45
2022-10-19T23:44:57.317Z,19.90
2022-10-19T23:47:24.197Z,19.70
2022-10-19T23:49:51.149Z,19.92
2022-10-19T23:52:17.960Z,20.27
2022-10-19T23:54:44.883Z,21.15
2022-10-19T23:57:11.758Z,21.15
2022-10-19T23:59:38.736Z,22.20
